createdAt,value
2022-10-30T00:00:52.556Z,0.00
2022-10-30T00:01:52.692Z,0.00
2022-10-30T00:02:52.584Z,0.00
2022-10-30T00:03:52.572Z,0.00
2022-10-30T00:04:52.494Z,0.00
2022-10-30T00:05:52.470Z,0.00
2022-10-30T00:06:52.460Z,0.00
2022-10-30T00:07:52.477Z,0.00
2022-10-30T00:08:52.584Z,0.00
2022-10-30T00:09:52.421Z,0.00
2022-10-30T00:10:52.422Z,0.00
2022-10-30T00:11:52.389Z,0.00
2022-10-30T00:12:52.391Z,0.00
2022-10-30T00:13:52.384Z,0.00
2022-10-30T00:14:52.350Z,0.00
2022-10-30T00:15:52.331Z,0.00
2022-10-30T00:16:52.493Z,0.00
2022-10-30T00:17:52.332Z,0.00
2022-10-30T00:18:52.385Z,0.00
2022-10-30T00:19:52.277Z,0.00
2022-10-30T00:20:52.330Z,0.00
2022-10-30T00:21:52.251Z,0.00
2022-10-30T00:22:52.271Z,0.00
2022-10-30T00:23:52.261Z,0.00
2022-10-30T00:24:52.218Z,0.00
2022-10-30T00:25:52.199Z,0.00
2022-10-30T00:26:52.268Z,0.00
2022-10-30T00:27:52.168Z,0.00
2022-10-30T00:28:52.180Z,0.00
2022-10-30T00:29:52.151Z,0.00
2022-10-30T00:30:52.142Z,0.00
2022-10-30T00:31:52.138Z,0.00
2022-10-30T00:32:52.124Z,0.00
2022-10-30T00:33:52.112Z,0.00
2022-10-30T00:34:52.089Z,0.00
2022-10-30T00:35:52.122Z,0.00
2022-10-30T00:36:52.061Z,0.00
2022-10-30T00:37:52.043Z,0.00
2022-10-30T00:38:52.040Z,0.00
2022-10-30T00:39:52.018Z,0.00
2022-10-30T00:40:52.254Z,0.00
2022-10-30T00:41:51.987Z,0.00
2022-10-30T00:42:51.981Z,0.00
2022-10-30T00:43:51.985Z,0.00
2022-10-30T00:44:51.953Z,0.00
2022-10-30T00:45:51.930Z,0.00
2022-10-30T00:46:51.945Z,0.00
2022-10-30T00:47:51.916Z,0.00
2022-10-30T00:48:51.898Z,0.00
2022-10-30T00:49:51.887Z,0.00
2022-10-30T00:50:51.877Z,0.00
2022-10-30T00:51:51.852Z,0.00
2022-10-30T00:52:51.862Z,0.00
2022-10-30T00:53:51.859Z,0.00
2022-10-30T00:54:51.807Z,0.00
2022-10-30T00:55:51.797Z,0.00
2022-10-30T00:56:51.808Z,0.00
2022-10-30T00:57:51.777Z,0.00
2022-10-30T00:58:51.789Z,0.00
2022-10-30T00:59:51.738Z,0.00
2022-10-30T01:00:51.847Z,0.00
2022-10-30T01:01:51.787Z,0.00
2022-10-30T01:02:51.759Z,0.00
2022-10-30T01:03:51.700Z,0.00
2022-10-30T01:04:51.701Z,0.00
2022-10-30T01:05:51.676Z,0.00
2022-10-30T01:06:51.651Z,0.00
2022-10-30T01:07:51.665Z,0.00
2022-10-30T01:08:56.854Z,0.00
2022-10-30T01:09:52.631Z,0.00
2022-10-30T01:10:51.587Z,0.00
2022-10-30T01:11:51.624Z,0.00
2022-10-30T01:12:51.829Z,0.00
2022-10-30T01:13:51.585Z,0.00
2022-10-30T01:14:51.544Z,0.00
2022-10-30T01:15:51.538Z,0.00
2022-10-30T01:16:51.528Z,0.00
2022-10-30T01:17:51.507Z,0.00
2022-10-30T01:18:51.509Z,0.00
2022-10-30T01:19:51.600Z,0.00
2022-10-30T01:20:51.458Z,0.00
2022-10-30T01:21:51.458Z,0.00
2022-10-30T01:22:51.448Z,0.00
2022-10-30T01:23:51.432Z,0.00
2022-10-30T01:24:51.434Z,0.00
2022-10-30T01:25:51.398Z,0.00
2022-10-30T01:26:51.696Z,0.00
2022-10-30T01:27:51.393Z,0.00
2022-10-30T01:28:51.629Z,0.00
2022-10-30T01:29:51.372Z,0.00
2022-10-30T01:30:51.326Z,0.00
2022-10-30T01:31:51.326Z,0.00
2022-10-30T01:32:51.307Z,0.00
2022-10-30T01:33:51.336Z,0.00
2022-10-30T01:34:51.575Z,0.00
2022-10-30T01:35:51.543Z,0.00
2022-10-30T01:36:51.245Z,0.00
2022-10-30T01:37:51.276Z,0.00
2022-10-30T01:38:51.266Z,0.00
2022-10-30T01:39:51.246Z,0.00
2022-10-30T01:40:51.196Z,0.00
2022-10-30T01:41:51.214Z,0.00
2022-10-30T01:42:51.188Z,0.00
2022-10-30T01:43:51.415Z,0.00
2022-10-30T01:44:51.145Z,0.00
2022-10-30T01:45:51.149Z,0.00
2022-10-30T01:46:51.135Z,0.00
2022-10-30T01:47:51.116Z,0.00
2022-10-30T01:48:51.100Z,0.00
2022-10-30T01:49:51.124Z,0.00
2022-10-30T01:50:51.055Z,0.00
2022-10-30T01:51:51.076Z,0.00
2022-10-30T01:52:51.055Z,0.00
2022-10-30T01:53:51.033Z,0.00
2022-10-30T01:54:51.085Z,0.00
2022-10-30T01:55:51.004Z,0.00
2022-10-30T01:56:51.019Z,0.00
2022-10-30T01:57:51.005Z,0.00
2022-10-30T01:58:50.983Z,0.00
2022-10-30T01:59:51.001Z,0.00
2022-10-30T02:00:50.935Z,0.00
2022-10-30T02:01:51.021Z,0.00
2022-10-30T02:02:50.914Z,0.00
2022-10-30T02:03:50.956Z,0.00
2022-10-30T02:04:50.894Z,0.00
2022-10-30T02:05:50.865Z,0.00
2022-10-30T02:06:50.844Z,0.00
2022-10-30T02:07:50.854Z,0.00
2022-10-30T02:08:50.833Z,0.00
2022-10-30T02:09:50.814Z,0.00
2022-10-30T02:10:50.814Z,0.00
2022-10-30T02:11:50.793Z,0.00
2022-10-30T02:12:50.791Z,0.00
2022-10-30T02:13:50.785Z,0.00
2022-10-30T02:14:50.763Z,0.00
2022-10-30T02:15:50.735Z,0.00
2022-10-30T02:16:50.724Z,0.00
2022-10-30T02:17:50.985Z,0.00
2022-10-30T02:18:50.714Z,0.00
2022-10-30T02:19:50.697Z,0.00
2022-10-30T02:20:50.672Z,0.00
2022-10-30T02:21:50.660Z,0.00
2022-10-30T02:22:53.139Z,0.00
2022-10-30T02:23:51.636Z,0.00
2022-10-30T02:24:50.617Z,0.00
2022-10-30T02:25:50.861Z,0.00
2022-10-30T02:26:50.584Z,0.00
2022-10-30T02:27:50.605Z,0.00
2022-10-30T02:28:50.580Z,0.00
2022-10-30T02:29:50.565Z,0.00
2022-10-30T02:30:50.556Z,0.00
2022-10-30T02:31:50.542Z,0.00
2022-10-30T02:32:50.526Z,0.00
2022-10-30T02:33:50.497Z,0.00
2022-10-30T02:34:50.482Z,0.00
2022-10-30T02:35:50.473Z,0.00
2022-10-30T02:36:50.486Z,0.00
2022-10-30T02:37:50.444Z,0.00
2022-10-30T02:38:50.443Z,0.00
2022-10-30T02:39:50.455Z,0.00
2022-10-30T02:40:50.414Z,0.00
2022-10-30T02:41:50.669Z,0.00
2022-10-30T02:42:50.384Z,0.00
2022-10-30T02:43:50.405Z,0.00
2022-10-30T02:44:50.344Z,0.00
2022-10-30T02:45:50.337Z,0.00
2022-10-30T02:46:50.350Z,0.00
2022-10-30T02:47:50.341Z,0.00
2022-10-30T02:48:50.585Z,0.00
2022-10-30T02:49:50.283Z,0.00
2022-10-30T02:50:50.296Z,0.00
2022-10-30T02:51:50.278Z,0.00
2022-10-30T02:52:50.262Z,0.00
2022-10-30T02:53:50.277Z,0.00
2022-10-30T02:54:50.213Z,0.00
2022-10-30T02:55:50.212Z,0.00
2022-10-30T02:56:50.236Z,0.00
2022-10-30T02:57:50.414Z,0.00
2022-10-30T02:58:50.160Z,0.00
2022-10-30T02:59:50.150Z,0.00
2022-10-30T03:00:50.241Z,0.00
2022-10-30T03:01:50.228Z,0.00
2022-10-30T03:02:50.171Z,0.00
2022-10-30T03:03:50.094Z,0.00
2022-10-30T03:04:50.082Z,0.00
2022-10-30T03:05:50.092Z,0.00
2022-10-30T03:06:50.108Z,0.00
2022-10-30T03:07:50.054Z,0.00
2022-10-30T03:08:50.036Z,0.00
2022-10-30T03:09:50.029Z,0.00
2022-10-30T03:10:50.260Z,0.00
2022-10-30T03:11:50.030Z,0.00
2022-10-30T03:12:50.232Z,0.00
2022-10-30T03:13:49.991Z,0.00
2022-10-30T03:14:49.954Z,0.00
2022-10-30T03:15:49.948Z,0.00
2022-10-30T03:16:50.218Z,0.00
2022-10-30T03:17:49.920Z,0.00
2022-10-30T03:18:49.893Z,0.00
2022-10-30T03:19:49.889Z,0.00
2022-10-30T03:20:49.881Z,0.00
2022-10-30T03:21:49.912Z,0.00
2022-10-30T03:22:49.837Z,0.00
2022-10-30T03:23:49.845Z,0.00
2022-10-30T03:24:49.817Z,0.00
2022-10-30T03:25:49.810Z,0.00
2022-10-30T03:26:50.135Z,0.00
2022-10-30T03:27:49.796Z,0.00
2022-10-30T03:28:49.761Z,0.00
2022-10-30T03:29:49.760Z,0.00
2022-10-30T03:30:49.746Z,0.00
2022-10-30T03:31:49.766Z,0.00
2022-10-30T03:32:49.712Z,0.00
2022-10-30T03:33:49.718Z,0.00
2022-10-30T03:34:49.678Z,0.00
2022-10-30T03:35:49.678Z,0.00
2022-10-30T03:36:49.670Z,0.00
2022-10-30T03:37:49.721Z,0.00
2022-10-30T03:38:49.628Z,0.00
2022-10-30T03:39:49.650Z,0.00
2022-10-30T03:40:49.608Z,0.00
2022-10-30T03:41:49.607Z,0.00
2022-10-30T03:42:49.569Z,0.00
2022-10-30T03:43:49.566Z,0.00
2022-10-30T03:44:49.568Z,0.00
2022-10-30T03:45:49.563Z,0.00
2022-10-30T03:46:49.530Z,0.00
2022-10-30T03:47:49.520Z,0.00
2022-10-30T03:48:49.500Z,0.00
2022-10-30T03:49:49.527Z,0.00
2022-10-30T03:50:49.465Z,0.00
2022-10-30T03:51:49.474Z,0.00
2022-10-30T03:52:49.451Z,0.00
2022-10-30T03:53:49.459Z,0.00
2022-10-30T03:54:49.421Z,0.00
2022-10-30T03:55:49.680Z,0.00
2022-10-30T03:56:49.406Z,0.00
2022-10-30T03:57:49.389Z,0.00
2022-10-30T03:58:49.373Z,0.00
2022-10-30T03:59:49.397Z,0.00
2022-10-30T04:00:49.332Z,0.00
2022-10-30T04:01:49.639Z,0.00
2022-10-30T04:02:49.578Z,0.00
2022-10-30T04:03:49.345Z,0.00
2022-10-30T04:04:49.296Z,0.00
2022-10-30T04:05:49.276Z,0.00
2022-10-30T04:06:49.554Z,0.00
2022-10-30T04:07:49.260Z,0.00
2022-10-30T04:08:49.237Z,0.00
2022-10-30T04:09:49.229Z,0.00
2022-10-30T04:10:49.247Z,0.00
2022-10-30T04:11:49.217Z,0.00
2022-10-30T04:12:49.167Z,0.00
2022-10-30T04:13:49.179Z,0.00
2022-10-30T04:14:49.154Z,0.00
2022-10-30T04:15:54.185Z,0.00
2022-10-30T04:16:50.148Z,0.00
2022-10-30T04:17:49.407Z,0.00
2022-10-30T04:18:49.106Z,0.00
2022-10-30T04:19:49.525Z,0.00
2022-10-30T04:20:49.065Z,0.00
2022-10-30T04:21:49.342Z,0.00
2022-10-30T04:22:49.066Z,0.00
2022-10-30T04:23:49.060Z,0.00
2022-10-30T04:24:49.016Z,0.00
2022-10-30T04:25:49.003Z,0.00
2022-10-30T04:26:49.009Z,0.00
2022-10-30T04:27:48.976Z,0.00
2022-10-30T04:28:48.963Z,0.00
2022-10-30T04:29:48.952Z,0.00
2022-10-30T04:30:48.942Z,0.00
2022-10-30T04:31:49.004Z,0.00
2022-10-30T04:32:48.925Z,0.00
2022-10-30T04:33:49.226Z,0.00
2022-10-30T04:34:48.885Z,0.00
2022-10-30T04:35:48.872Z,0.00
2022-10-30T04:36:48.898Z,0.00
2022-10-30T04:37:49.129Z,0.00
2022-10-30T04:38:48.824Z,0.00
2022-10-30T04:39:48.830Z,0.00
2022-10-30T04:40:48.806Z,0.00
2022-10-30T04:41:48.793Z,0.00
2022-10-30T04:42:48.784Z,0.00
2022-10-30T04:43:48.756Z,0.00
2022-10-30T04:44:48.764Z,0.00
2022-10-30T04:45:48.746Z,0.00
2022-10-30T04:46:48.751Z,0.00
2022-10-30T04:47:48.718Z,0.00
2022-10-30T04:48:48.700Z,0.00
2022-10-30T04:49:48.695Z,0.00
2022-10-30T04:50:48.685Z,0.00
2022-10-30T04:51:48.939Z,0.00
2022-10-30T04:52:48.924Z,0.00
2022-10-30T04:53:48.640Z,0.00
2022-10-30T04:54:48.639Z,0.00
2022-10-30T04:55:48.601Z,0.00
2022-10-30T04:56:48.613Z,0.00
2022-10-30T04:57:48.572Z,0.00
2022-10-30T04:58:48.572Z,0.00
2022-10-30T04:59:48.567Z,0.00
2022-10-30T05:00:48.561Z,0.00
2022-10-30T05:01:48.612Z,0.00
2022-10-30T05:02:48.524Z,0.00
2022-10-30T05:03:50.653Z,0.00
2022-10-30T05:04:49.482Z,0.00
2022-10-30T05:05:48.761Z,0.00
2022-10-30T05:06:48.475Z,0.00
2022-10-30T05:07:48.460Z,0.00
2022-10-30T05:08:48.431Z,0.00
2022-10-30T05:09:48.461Z,0.00
2022-10-30T05:10:48.423Z,0.00
2022-10-30T05:11:48.394Z,0.00
2022-10-30T05:12:48.369Z,0.00
2022-10-30T05:13:48.373Z,0.00
2022-10-30T05:14:48.377Z,0.00
2022-10-30T05:15:48.616Z,0.00
2022-10-30T05:16:48.324Z,0.00
2022-10-30T05:17:48.337Z,0.00
2022-10-30T05:18:48.309Z,0.00
2022-10-30T05:19:48.290Z,0.00
2022-10-30T05:20:48.279Z,0.00
2022-10-30T05:21:48.519Z,0.00
2022-10-30T05:22:48.249Z,0.00
2022-10-30T05:23:48.220Z,0.00
2022-10-30T05:24:48.209Z,0.00
2022-10-30T05:25:48.238Z,0.00
2022-10-30T05:26:48.207Z,0.00
2022-10-30T05:27:48.176Z,0.00
2022-10-30T05:28:48.174Z,0.00
2022-10-30T05:29:48.140Z,0.00
2022-10-30T05:30:48.181Z,0.00
2022-10-30T05:31:48.117Z,0.00
2022-10-30T05:32:48.126Z,0.00
2022-10-30T05:33:48.127Z,0.00
2022-10-30T05:34:48.096Z,0.00
2022-10-30T05:35:48.095Z,4.00
2022-10-30T05:36:48.058Z,4.00
2022-10-30T05:37:48.057Z,0.00
2022-10-30T05:38:48.055Z,0.00
2022-10-30T05:39:48.276Z,4.00
2022-10-30T05:40:48.040Z,4.00
2022-10-30T05:41:47.989Z,4.00
2022-10-30T05:42:47.978Z,4.00
2022-10-30T05:43:47.958Z,4.00
2022-10-30T05:45:00.352Z,8.00
2022-10-30T05:45:49.035Z,8.00
2022-10-30T05:46:47.996Z,8.00
2022-10-30T05:47:47.904Z,8.00
2022-10-30T05:48:47.907Z,12.00
2022-10-30T05:49:47.888Z,12.00
2022-10-30T05:50:47.909Z,16.00
2022-10-30T05:51:47.860Z,16.00
2022-10-30T05:52:47.858Z,20.00
2022-10-30T05:53:47.826Z,20.00
2022-10-30T05:54:47.836Z,24.00
2022-10-30T05:55:47.810Z,24.00
2022-10-30T05:56:47.789Z,28.00
2022-10-30T05:57:47.786Z,24.00
2022-10-30T05:58:47.765Z,32.00
2022-10-30T05:59:47.757Z,28.00
2022-10-30T06:00:47.745Z,36.00
2022-10-30T06:01:47.721Z,36.00
2022-10-30T06:02:47.741Z,40.00
2022-10-30T06:03:47.704Z,44.00
2022-10-30T06:04:47.956Z,48.00
2022-10-30T06:05:47.676Z,48.00
2022-10-30T06:06:47.665Z,52.00
2022-10-30T06:07:47.637Z,60.00
2022-10-30T06:08:47.644Z,64.00
2022-10-30T06:09:47.627Z,68.00
2022-10-30T06:10:47.610Z,72.00
2022-10-30T06:11:47.585Z,76.00
2022-10-30T06:12:47.660Z,84.00
2022-10-30T06:13:47.565Z,88.00
2022-10-30T06:14:47.571Z,100.00
2022-10-30T06:15:47.809Z,108.00
2022-10-30T06:16:47.530Z,120.00
2022-10-30T06:17:47.531Z,128.00
2022-10-30T06:18:47.494Z,144.00
2022-10-30T06:19:47.489Z,156.00
2022-10-30T06:20:47.514Z,172.00
2022-10-30T06:21:47.458Z,188.00
2022-10-30T06:22:47.446Z,204.00
2022-10-30T06:23:47.439Z,224.00
2022-10-30T06:24:47.433Z,248.00
2022-10-30T06:25:47.394Z,272.00
2022-10-30T06:26:47.402Z,292.00
2022-10-30T06:27:47.415Z,312.00
2022-10-30T06:28:47.365Z,328.00
2022-10-30T06:29:47.388Z,352.00
2022-10-30T06:30:47.333Z,372.00
2022-10-30T06:31:47.326Z,392.00
2022-10-30T06:32:47.330Z,416.00
2022-10-30T06:33:47.304Z,440.00
2022-10-30T06:34:47.566Z,468.00
2022-10-30T06:35:47.296Z,492.00
2022-10-30T06:36:47.349Z,524.00
2022-10-30T06:37:47.263Z,560.00
2022-10-30T06:38:47.230Z,600.00
2022-10-30T06:39:47.244Z,652.00
2022-10-30T06:40:47.197Z,704.00
2022-10-30T06:41:47.205Z,752.00
2022-10-30T06:42:47.188Z,796.00
2022-10-30T06:43:47.164Z,844.00
2022-10-30T06:44:47.165Z,888.00
2022-10-30T06:45:47.133Z,940.00
2022-10-30T06:46:47.126Z,1012.00
2022-10-30T06:47:47.130Z,1108.00
2022-10-30T06:48:47.116Z,1180.00
2022-10-30T06:49:47.113Z,1260.00
2022-10-30T06:50:47.062Z,1336.00
2022-10-30T06:51:47.067Z,1400.00
2022-10-30T06:52:47.343Z,1436.00
2022-10-30T06:53:47.316Z,1456.00
2022-10-30T06:54:47.049Z,1460.00
2022-10-30T06:55:47.268Z,1456.00
2022-10-30T06:56:46.994Z,1420.00
2022-10-30T06:57:46.981Z,1384.00
2022-10-30T06:58:46.982Z,1364.00
2022-10-30T06:59:46.969Z,1356.00
2022-10-30T07:00:47.037Z,1348.00
2022-10-30T07:01:47.017Z,1304.00
2022-10-30T07:02:47.194Z,1260.00
2022-10-30T07:03:46.911Z,1224.00
2022-10-30T07:04:46.893Z,1196.00
2022-10-30T07:05:46.871Z,1168.00
2022-10-30T07:06:46.916Z,1148.00
2022-10-30T07:07:46.854Z,1140.00
2022-10-30T07:08:46.844Z,1140.00
2022-10-30T07:09:47.125Z,1168.00
2022-10-30T07:10:46.800Z,1208.00
2022-10-30T07:11:46.782Z,1256.00
2022-10-30T07:12:46.841Z,1316.00
2022-10-30T07:13:46.789Z,1376.00
2022-10-30T07:14:46.751Z,1432.00
2022-10-30T07:15:46.735Z,1484.00
2022-10-30T07:16:46.736Z,1536.00
2022-10-30T07:17:46.703Z,1604.00
2022-10-30T07:18:46.715Z,1656.00
2022-10-30T07:19:46.721Z,1736.00
2022-10-30T07:20:46.674Z,1816.00
2022-10-30T07:21:46.662Z,1920.00
2022-10-30T07:22:46.646Z,2052.00
2022-10-30T07:23:46.645Z,2160.00
2022-10-30T07:24:46.635Z,2244.00
2022-10-30T07:25:46.616Z,2340.00
2022-10-30T07:26:46.862Z,2428.00
2022-10-30T07:27:46.571Z,2528.00
2022-10-30T07:28:46.573Z,2636.00
2022-10-30T07:29:46.553Z,2748.00
2022-10-30T07:30:46.555Z,2796.00
2022-10-30T07:31:57.791Z,2772.00
2022-10-30T07:32:47.554Z,2708.00
2022-10-30T07:33:46.492Z,2596.00
2022-10-30T07:34:46.491Z,2436.00
2022-10-30T07:35:46.503Z,2332.00
2022-10-30T07:36:46.461Z,2300.00
2022-10-30T07:37:46.439Z,2288.00
2022-10-30T07:38:46.448Z,2264.00
2022-10-30T07:39:46.406Z,2284.00
2022-10-30T07:40:46.460Z,2392.00
2022-10-30T07:41:49.984Z,2676.00
2022-10-30T07:42:46.402Z,3624.00
2022-10-30T07:43:46.389Z,5440.00
2022-10-30T07:44:46.359Z,9436.00
2022-10-30T07:45:46.363Z,10228.00
2022-10-30T07:46:46.333Z,8572.00
2022-10-30T07:47:46.345Z,11916.00
2022-10-30T07:48:46.304Z,11388.00
2022-10-30T07:49:46.281Z,4352.00
2022-10-30T07:50:46.297Z,7516.00
2022-10-30T07:51:46.259Z,7472.00
2022-10-30T07:52:46.262Z,10016.00
2022-10-30T07:53:46.250Z,12656.00
2022-10-30T07:54:46.214Z,17536.00
2022-10-30T07:55:46.204Z,23328.00
2022-10-30T07:56:46.192Z,18048.00
2022-10-30T07:57:46.232Z,10716.00
2022-10-30T07:58:46.170Z,4716.00
2022-10-30T07:59:46.153Z,5980.00
2022-10-30T08:00:46.143Z,4792.00
2022-10-30T08:01:46.282Z,12792.00
2022-10-30T08:02:46.259Z,30848.00
2022-10-30T08:03:46.090Z,21792.00
2022-10-30T08:04:46.090Z,7204.00
2022-10-30T08:05:46.070Z,13540.00
2022-10-30T08:06:46.113Z,24800.00
2022-10-30T08:07:46.050Z,23296.00
2022-10-30T08:08:46.040Z,20416.00
2022-10-30T08:09:46.025Z,26144.00
2022-10-30T08:10:46.008Z,20320.00
2022-10-30T08:11:46.019Z,13072.00
2022-10-30T08:12:45.990Z,25024.00
2022-10-30T08:13:46.214Z,26624.00
2022-10-30T08:14:45.960Z,22528.00
2022-10-30T08:15:45.948Z,29568.00
2022-10-30T08:16:46.583Z,25280.00
2022-10-30T08:17:45.922Z,16064.00
2022-10-30T08:18:45.913Z,13472.00
2022-10-30T08:19:45.883Z,31136.00
2022-10-30T08:20:45.918Z,23456.00
2022-10-30T08:21:45.865Z,6772.00
2022-10-30T08:22:45.848Z,13304.00
2022-10-30T08:23:45.828Z,7860.00
2022-10-30T08:24:45.832Z,22240.00
2022-10-30T08:25:45.801Z,10876.00
2022-10-30T08:26:45.826Z,13664.00
2022-10-30T08:27:45.772Z,10948.00
2022-10-30T08:28:45.763Z,3704.00
2022-10-30T08:29:45.776Z,3428.00
2022-10-30T08:30:45.746Z,5760.00
2022-10-30T08:31:45.752Z,3760.00
2022-10-30T08:32:45.714Z,5296.00
2022-10-30T08:33:45.695Z,5708.00
2022-10-30T08:34:45.676Z,4496.00
2022-10-30T08:35:45.673Z,8340.00
2022-10-30T08:36:48.508Z,15424.00
2022-10-30T08:37:45.638Z,7748.00
2022-10-30T08:38:45.624Z,6768.00
2022-10-30T08:39:45.605Z,13504.00
2022-10-30T08:40:45.612Z,13920.00
2022-10-30T08:41:45.601Z,20320.00
2022-10-30T08:42:45.649Z,22752.00
2022-10-30T08:43:45.557Z,26720.00
2022-10-30T08:44:45.543Z,14336.00
2022-10-30T08:45:45.543Z,9960.00
2022-10-30T08:46:45.535Z,6000.00
2022-10-30T08:47:45.504Z,10516.00
2022-10-30T08:48:45.505Z,13824.00
2022-10-30T08:49:45.744Z,9552.00
2022-10-30T08:50:45.466Z,10012.00
2022-10-30T08:51:45.498Z,9360.00
2022-10-30T08:52:48.232Z,21344.00
2022-10-30T08:53:46.477Z,8228.00
2022-10-30T08:54:45.424Z,5984.00
2022-10-30T08:55:45.705Z,8328.00
2022-10-30T08:56:45.403Z,8792.00
2022-10-30T08:57:45.378Z,18048.00
2022-10-30T08:58:45.367Z,14368.00
2022-10-30T08:59:45.339Z,14848.00
2022-10-30T09:00:45.366Z,12492.00
2022-10-30T09:01:45.392Z,3300.00
2022-10-30T09:02:45.436Z,2344.00
2022-10-30T09:03:45.299Z,2068.00
2022-10-30T09:04:45.312Z,2484.00
2022-10-30T09:05:45.293Z,4976.00
2022-10-30T09:06:45.258Z,4276.00
2022-10-30T09:07:45.239Z,10280.00
2022-10-30T09:08:45.253Z,5184.00
2022-10-30T09:09:45.216Z,5812.00
2022-10-30T09:10:45.204Z,8952.00
2022-10-30T09:11:45.229Z,5572.00
2022-10-30T09:12:45.199Z,5148.00
2022-10-30T09:13:45.179Z,4972.00
2022-10-30T09:14:45.142Z,4616.00
2022-10-30T09:15:45.141Z,4524.00
2022-10-30T09:16:45.138Z,4380.00
2022-10-30T09:17:45.120Z,4428.00
2022-10-30T09:18:45.142Z,4612.00
2022-10-30T09:19:45.154Z,4572.00
2022-10-30T09:20:45.095Z,4488.00
2022-10-30T09:21:45.063Z,4400.00
2022-10-30T09:22:45.033Z,4340.00
2022-10-30T09:23:45.034Z,4288.00
2022-10-30T09:24:45.030Z,4244.00
2022-10-30T09:25:45.010Z,4192.00
2022-10-30T09:26:44.990Z,4144.00
2022-10-30T09:27:45.001Z,4096.00
2022-10-30T09:28:44.962Z,4052.00
2022-10-30T09:29:44.954Z,4016.00
2022-10-30T09:30:44.942Z,3964.00
2022-10-30T09:31:44.922Z,3928.00
2022-10-30T09:32:44.902Z,3896.00
2022-10-30T09:33:44.901Z,3864.00
2022-10-30T09:34:45.051Z,3848.00
2022-10-30T09:35:44.881Z,3828.00
2022-10-30T09:36:44.852Z,3804.00
2022-10-30T09:37:44.849Z,3764.00
2022-10-30T09:38:44.832Z,3544.00
2022-10-30T09:39:44.836Z,3704.00
2022-10-30T09:40:44.826Z,2872.00
2022-10-30T09:41:48.622Z,2516.00
2022-10-30T09:42:45.805Z,2464.00
2022-10-30T09:43:44.784Z,2620.00
2022-10-30T09:44:48.752Z,3512.00
2022-10-30T09:45:45.778Z,3556.00
2022-10-30T09:46:44.731Z,3612.00
2022-10-30T09:47:44.723Z,3660.00
2022-10-30T09:48:44.700Z,3688.00
2022-10-30T09:49:44.706Z,3696.00
2022-10-30T09:50:44.686Z,3660.00
2022-10-30T09:51:44.671Z,3584.00
2022-10-30T09:52:44.652Z,3524.00
2022-10-30T09:53:44.643Z,3460.00
2022-10-30T09:54:44.623Z,3396.00
2022-10-30T09:56:00.152Z,3332.00
2022-10-30T09:56:44.598Z,3276.00
2022-10-30T09:57:44.575Z,3228.00
2022-10-30T09:58:44.573Z,3188.00
2022-10-30T09:59:44.550Z,3148.00
2022-10-30T10:00:44.570Z,3104.00
2022-10-30T10:01:44.615Z,3096.00
2022-10-30T10:02:44.646Z,3076.00
2022-10-30T10:03:44.551Z,3060.00
2022-10-30T10:04:44.486Z,3048.00
2022-10-30T10:05:44.506Z,3036.00
2022-10-30T10:06:44.499Z,3012.00
2022-10-30T10:07:44.482Z,2996.00
2022-10-30T10:08:44.449Z,2964.00
2022-10-30T10:09:44.574Z,2928.00
2022-10-30T10:10:44.472Z,2924.00
2022-10-30T10:11:44.437Z,2908.00
2022-10-30T10:12:44.404Z,2888.00
2022-10-30T10:13:44.402Z,2876.00
2022-10-30T10:14:44.358Z,2864.00
2022-10-30T10:15:44.429Z,2848.00
2022-10-30T10:16:44.336Z,2832.00
2022-10-30T10:17:44.336Z,2812.00
2022-10-30T10:18:44.307Z,2800.00
2022-10-30T10:19:44.286Z,2780.00
2022-10-30T10:20:44.332Z,2772.00
2022-10-30T10:21:44.264Z,2756.00
2022-10-30T10:22:44.255Z,2744.00
2022-10-30T10:23:44.234Z,2732.00
2022-10-30T10:24:44.238Z,2716.00
2022-10-30T10:25:44.287Z,2708.00
2022-10-30T10:26:44.224Z,2692.00
2022-10-30T10:27:44.272Z,2684.00
2022-10-30T10:28:44.206Z,2672.00
2022-10-30T10:29:44.181Z,2660.00
2022-10-30T10:30:44.166Z,2652.00
2022-10-30T10:31:44.157Z,2644.00
2022-10-30T10:32:44.165Z,2628.00
2022-10-30T10:33:44.133Z,2624.00
2022-10-30T10:34:44.110Z,2612.00
2022-10-30T10:35:44.098Z,2604.00
2022-10-30T10:36:44.105Z,2600.00
2022-10-30T10:37:44.068Z,2596.00
2022-10-30T10:38:44.097Z,2580.00
2022-10-30T10:39:44.043Z,2572.00
2022-10-30T10:40:44.029Z,2568.00
2022-10-30T10:41:44.008Z,2548.00
2022-10-30T10:42:44.011Z,2540.00
2022-10-30T10:43:43.995Z,2532.00
2022-10-30T10:44:44.019Z,2524.00
2022-10-30T10:45:43.962Z,2516.00
2022-10-30T10:46:43.951Z,2512.00
2022-10-30T10:47:43.933Z,2496.00
2022-10-30T10:48:43.918Z,2500.00
2022-10-30T10:49:43.900Z,2496.00
2022-10-30T10:50:43.896Z,2492.00
2022-10-30T10:51:43.874Z,2484.00
2022-10-30T10:52:43.880Z,2476.00
2022-10-30T10:53:43.863Z,2464.00
2022-10-30T10:54:43.872Z,2460.00
2022-10-30T10:55:43.826Z,2456.00
2022-10-30T10:56:43.820Z,2456.00
2022-10-30T10:57:43.792Z,2424.00
2022-10-30T10:58:43.805Z,2436.00
2022-10-30T10:59:43.789Z,2424.00
2022-10-30T11:00:43.783Z,2416.00
2022-10-30T11:01:43.794Z,2408.00
2022-10-30T11:02:43.841Z,2408.00
2022-10-30T11:03:43.719Z,2396.00
2022-10-30T11:04:43.731Z,2388.00
2022-10-30T11:05:43.693Z,2392.00
2022-10-30T11:06:43.682Z,2388.00
2022-10-30T11:07:43.671Z,2380.00
2022-10-30T11:08:43.691Z,2372.00
2022-10-30T11:09:43.654Z,2368.00
2022-10-30T11:10:43.652Z,2368.00
2022-10-30T11:11:43.620Z,2356.00
2022-10-30T11:12:43.618Z,2356.00
2022-10-30T11:13:43.612Z,2352.00
2022-10-30T11:14:43.596Z,2344.00
2022-10-30T11:15:43.574Z,2344.00
2022-10-30T11:16:43.554Z,2336.00
2022-10-30T11:17:43.537Z,2328.00
2022-10-30T11:18:43.526Z,2328.00
2022-10-30T11:19:46.512Z,2320.00
2022-10-30T11:20:44.537Z,2308.00
2022-10-30T11:21:43.493Z,2308.00
2022-10-30T11:22:43.497Z,2308.00
2022-10-30T11:23:43.459Z,2304.00
2022-10-30T11:24:43.467Z,2232.00
2022-10-30T11:25:43.451Z,1772.00
2022-10-30T11:26:43.420Z,1604.00
2022-10-30T11:27:43.410Z,2272.00
2022-10-30T11:28:43.389Z,2288.00
2022-10-30T11:29:43.430Z,2280.00
2022-10-30T11:30:43.392Z,2292.00
2022-10-30T11:31:43.351Z,2308.00
2022-10-30T11:32:43.351Z,2312.00
2022-10-30T11:33:43.325Z,2316.00
2022-10-30T11:34:43.339Z,2324.00
2022-10-30T11:35:43.315Z,2332.00
2022-10-30T11:36:43.313Z,2336.00
2022-10-30T11:37:43.273Z,2336.00
2022-10-30T11:38:43.259Z,2340.00
2022-10-30T11:39:43.249Z,2340.00
2022-10-30T11:40:43.242Z,2336.00
2022-10-30T11:41:43.219Z,2340.00
2022-10-30T11:42:43.230Z,2348.00
2022-10-30T11:43:43.200Z,2352.00
2022-10-30T11:44:43.181Z,2352.00
2022-10-30T11:45:43.165Z,2352.00
2022-10-30T11:46:43.154Z,2360.00
2022-10-30T11:47:43.142Z,2364.00
2022-10-30T11:48:43.141Z,2368.00
2022-10-30T11:49:43.122Z,2372.00
2022-10-30T11:50:43.151Z,2368.00
2022-10-30T11:51:43.131Z,2368.00
2022-10-30T11:52:43.072Z,2364.00
2022-10-30T11:53:43.163Z,2348.00
2022-10-30T11:54:43.083Z,2340.00
2022-10-30T11:55:43.040Z,2328.00
2022-10-30T11:56:43.023Z,2312.00
2022-10-30T11:57:43.021Z,2300.00
2022-10-30T11:58:43.041Z,2292.00
2022-10-30T11:59:42.983Z,2280.00
2022-10-30T12:00:43.005Z,2272.00
2022-10-30T12:01:43.016Z,2260.00
2022-10-30T12:02:42.954Z,2252.00
2022-10-30T12:03:42.966Z,2236.00
2022-10-30T12:04:42.955Z,2224.00
2022-10-30T12:05:45.050Z,2216.00
2022-10-30T12:06:42.909Z,2204.00
2022-10-30T12:07:42.913Z,2196.00
2022-10-30T12:08:42.896Z,2188.00
2022-10-30T12:09:42.867Z,2180.00
2022-10-30T12:10:42.856Z,2168.00
2022-10-30T12:11:42.835Z,2160.00
2022-10-30T12:12:42.829Z,2152.00
2022-10-30T12:13:42.859Z,2140.00
2022-10-30T12:14:42.821Z,2132.00
2022-10-30T12:15:42.777Z,2128.00
2022-10-30T12:16:42.779Z,2120.00
2022-10-30T12:17:42.756Z,2112.00
2022-10-30T12:18:42.756Z,2104.00
2022-10-30T12:19:42.821Z,2100.00
2022-10-30T12:20:42.775Z,2088.00
2022-10-30T12:21:42.720Z,2072.00
2022-10-30T12:22:42.728Z,2060.00
2022-10-30T12:23:42.686Z,2044.00
2022-10-30T12:24:42.688Z,2036.00
2022-10-30T12:25:42.667Z,2020.00
2022-10-30T12:26:42.628Z,2008.00
2022-10-30T12:27:42.632Z,1992.00
2022-10-30T12:28:42.639Z,1988.00
2022-10-30T12:30:06.613Z,1976.00
2022-10-30T12:30:43.619Z,1964.00
2022-10-30T12:31:42.580Z,1956.00
2022-10-30T12:32:42.573Z,1916.00
2022-10-30T12:33:42.558Z,1940.00
2022-10-30T12:34:42.539Z,1932.00
2022-10-30T12:35:42.517Z,1928.00
2022-10-30T12:36:42.520Z,1908.00
2022-10-30T12:37:42.514Z,1876.00
2022-10-30T12:38:42.493Z,1900.00